Time,TemperatureF,DewpointF,PressureIn,WindDirection,WindDirectionDegrees,WindSpeedMPH,WindSpeedGustMPH,Humidity,HourlyPrecipIn,Conditions,Clouds,dailyrainin,SoftwareType,DateUTC
2013-02-20 00:02:00,39.0,27.1,29.50,North,-999,-999.0,-999.0,62,-99.99,,,-99.99,Acu-Link.com,2013-02-20 05:02:00,
2013-02-20 00:17:00,38.7,26.8,29.50,North,-999,-999.0,-999.0,62,-99.99,,,-99.99,Acu-Link.com,2013-02-20 05:17:00,
2013-02-20 00:33:00,38.1,25.9,29.50,North,-999,-999.0,-999.0,61,-99.99,,,-99.99,Acu-Link.com,2013-02-20 05:33:00,
2013-02-20 00:48:00,37.8,25.1,29.50,North,-999,-999.0,-999.0,60,-99.99,,,-99.99,Acu-Link.com,2013-02-20 05:48:00,
2013-02-20 01:03:00,37.4,24.8,29.50,North,-999,-999.0,-999.0,60,-99.99,,,-99.99,Acu-Link.com,2013-02-20 06:03:00,
2013-02-20 01:18:00,37.2,24.6,29.50,North,-999,-999.0,-999.0,60,-99.99,,,-99.99,Acu-Link.com,2013-02-20 06:18:00,
2013-02-20 01:34:00,36.9,23.9,29.50,North,-999,-999.0,-999.0,59,-99.99,,,-99.99,Acu-Link.com,2013-02-20 06:34:00,
2013-02-20 01:49:00,36.5,23.6,29.50,North,-999,-999.0,-999.0,59,-99.99,,,-99.99,Acu-Link.com,2013-02-20 06:49:00,
2013-02-20 02:04:00,36.3,23.0,29.51,North,-999,-999.0,-999.0,58,-99.99,,,-99.99,Acu-Link.com,2013-02-20 07:04:00,
2013-02-20 02:19:00,36.0,22.6,29.51,North,-999,-999.0,-999.0,58,-99.99,,,-99.99,Acu-Link.com,2013-02-20 07:19:00,
2013-02-20 02:35:00,35.8,22.1,29.52,North,-999,-999.0,-999.0,57,-99.99,,,-99.99,Acu-Link.com,2013-02-20 07:35:00,
2013-02-20 02:50:00,35.6,21.9,29.51,North,-999,-999.0,-999.0,57,-99.99,,,-99.99,Acu-Link.com,2013-02-20 07:50:00,
2013-02-20 03:05:00,35.2,22.0,29.52,North,-999,-999.0,-999.0,58,-99.99,,,-99.99,Acu-Link.com,2013-02-20 08:05:00,
2013-02-20 03:20:00,34.7,21.9,29.52,North,-999,-999.0,-999.0,59,-99.99,,,-99.99,Acu-Link.com,2013-02-20 08:20:00,
2013-02-20 03:35:00,34.2,21.3,29.52,North,-999,-999.0,-999.0,59,-99.99,,,-99.99,Acu-Link.com,2013-02-20 08:35:00,
2013-02-20 03:51:00,33.8,21.0,29.53,North,-999,-999.0,-999.0,59,-99.99,,,-99.99,Acu-Link.com,2013-02-20 08:51:00,
2013-02-20 04:18:00,33.6,21.2,29.53,North,-999,-999.0,-999.0,60,-99.99,,,-99.99,Acu-Link.com,2013-02-20 09:18:00,
2013-02-20 04:33:00,32.9,19.4,29.54,North,-999,-999.0,-999.0,57,-99.99,,,-99.99,Acu-Link.com,2013-02-20 09:33:00,
2013-02-20 04:48:00,32.5,18.2,29.55,North,-999,-999.0,-999.0,55,-99.99,,,-99.99,Acu-Link.com,2013-02-20 09:48:00,
2013-02-20 05:03:00,32.2,17.4,29.55,North,-999,-999.0,-999.0,54,-99.99,,,-99.99,Acu-Link.com,2013-02-20 10:03:00,
2013-02-20 05:18:00,32.0,17.3,29.56,North,-999,-999.0,-999.0,54,-99.99,,,-99.99,Acu-Link.com,2013-02-20 10:18:00,
2013-02-20 05:33:00,32.0,17.3,29.56,North,-999,-999.0,-999.0,54,-99.99,,,-99.99,Acu-Link.com,2013-02-20 10:33:00,
2013-02-20 05:49:00,31.8,17.5,29.57,North,-999,-999.0,-999.0,55,-99.99,,,-99.99,Acu-Link.com,2013-02-20 10:49:00,
2013-02-20 06:04:00,31.6,16.9,29.58,North,-999,-999.0,-999.0,54,-99.99,,,-99.99,Acu-Link.com,2013-02-20 11:04:00,
2013-02-20 06:19:00,31.5,17.2,29.59,North,-999,-999.0,-999.0,55,-99.99,,,-99.99,Acu-Link.com,2013-02-20 11:19:00,
2013-02-20 06:34:00,31.5,17.2,29.59,North,-999,-999.0,-999.0,55,-99.99,,,-99.99,Acu-Link.com,2013-02-20 11:34:00,
2013-02-20 06:49:00,31.3,17.0,29.59,North,-999,-999.0,-999.0,55,-99.99,,,-99.99,Acu-Link.com,2013-02-20 11:49:00,
2013-02-20 07:04:00,31.3,17.0,29.60,North,-999,-999.0,-999.0,55,-99.99,,,-99.99,Acu-Link.com,2013-02-20 12:04:00,
2013-02-20 07:19:00,31.5,17.6,29.61,North,-999,-999.0,-999.0,56,-99.99,,,-99.99,Acu-Link.com,2013-02-20 12:19:00,
2013-02-20 07:34:00,31.5,17.6,29.61,North,-999,-999.0,-999.0,56,-99.99,,,-99.99,Acu-Link.com,2013-02-20 12:34:00,
2013-02-20 07:50:00,31.6,17.8,29.62,North,-999,-999.0,-999.0,56,-99.99,,,-99.99,Acu-Link.com,2013-02-20 12:50:00,
2013-02-20 08:05:00,31.5,17.2,29.62,North,-999,-999.0,-999.0,55,-99.99,,,-99.99,Acu-Link.com,2013-02-20 13:05:00,
2013-02-20 08:20:00,31.5,16.8,29.63,North,-999,-999.0,-999.0,54,-99.99,,,-99.99,Acu-Link.com,2013-02-20 13:20:00,
2013-02-20 08:36:00,31.1,16.0,29.63,North,-999,-999.0,-999.0,53,-99.99,,,-99.99,Acu-Link.com,2013-02-20 13:36:00,
2013-02-20 08:51:00,31.1,15.6,29.64,North,-999,-999.0,-999.0,52,-99.99,,,-99.99,Acu-Link.com,2013-02-20 13:51:00,
2013-02-20 09:06:00,31.5,15.4,29.64,North,-999,-999.0,-999.0,51,-99.99,,,-99.99,Acu-Link.com,2013-02-20 14:06:00,
2013-02-20 09:21:00,31.8,15.8,29.64,North,-999,-999.0,-999.0,51,-99.99,,,-99.99,Acu-Link.com,2013-02-20 14:21:00,
2013-02-20 09:36:00,32.0,15.5,29.64,North,-999,-999.0,-999.0,50,-99.99,,,-99.99,Acu-Link.com,2013-02-20 14:36:00,
2013-02-20 09:52:00,32.2,15.2,29.65,North,-999,-999.0,-999.0,49,-99.99,,,-99.99,Acu-Link.com,2013-02-20 14:52:00,
2013-02-20 10:07:00,32.2,15.2,29.65,North,-999,-999.0,-999.0,49,-99.99,,,-99.99,Acu-Link.com,2013-02-20 15:07:00,
2013-02-20 10:22:00,32.9,15.9,29.65,North,-999,-999.0,-999.0,49,-99.99,,,-99.99,Acu-Link.com,2013-02-20 15:22:00,
2013-02-20 10:37:00,32.9,15.9,29.65,North,-999,-999.0,-999.0,49,-99.99,,,-99.99,Acu-Link.com,2013-02-20 15:37:00,
2013-02-20 10:52:00,32.2,15.2,29.64,North,-999,-999.0,-999.0,49,-99.99,,,-99.99,Acu-Link.com,2013-02-20 15:52:00,
2013-02-20 11:07:00,32.7,15.7,29.64,North,-999,-999.0,-999.0,49,-99.99,,,-99.99,Acu-Link.com,2013-02-20 16:07:00,
2013-02-20 11:23:00,32.4,15.4,29.64,North,-999,-999.0,-999.0,49,-99.99,,,-99.99,Acu-Link.com,2013-02-20 16:23:00,
2013-02-20 11:38:00,31.8,15.3,29.64,North,-999,-999.0,-999.0,50,-99.99,,,-99.99,Acu-Link.com,2013-02-20 16:38:00,
2013-02-20 11:53:00,32.9,15.9,29.63,North,-999,-999.0,-999.0,49,-99.99,,,-99.99,Acu-Link.com,2013-02-20 16:53:00,
2013-02-20 12:08:00,32.9,15.9,29.63,North,-999,-999.0,-999.0,49,-99.99,,,-99.99,Acu-Link.com,2013-02-20 17:08:00,
2013-02-20 12:23:00,32.9,15.4,29.63,North,-999,-999.0,-999.0,48,-99.99,,,-99.99,Acu-Link.com,2013-02-20 17:23:00,
2013-02-20 12:39:00,32.5,15.1,29.63,North,-999,-999.0,-999.0,48,-99.99,,,-99.99,Acu-Link.com,2013-02-20 17:39:00,
2013-02-20 12:54:00,32.4,14.4,29.63,North,-999,-999.0,-999.0,47,-99.99,,,-99.99,Acu-Link.com,2013-02-20 17:54:00,
2013-02-20 13:09:00,32.9,14.9,29.62,North,-999,-999.0,-999.0,47,-99.99,,,-99.99,Acu-Link.com,2013-02-20 18:09:00,
2013-02-20 13:24:00,32.2,14.2,29.63,North,-999,-999.0,-999.0,47,-99.99,,,-99.99,Acu-Link.com,2013-02-20 18:24:00,
2013-02-20 13:39:00,32.4,14.4,29.63,North,-999,-999.0,-999.0,47,-99.99,,,-99.99,Acu-Link.com,2013-02-20 18:39:00,
2013-02-20 13:54:00,33.6,14.6,29.63,North,-999,-999.0,-999.0,45,-99.99,,,-99.99,Acu-Link.com,2013-02-20 18:54:00,
2013-02-20 14:10:00,33.6,14.1,29.63,North,-999,-999.0,-999.0,44,-99.99,,,-99.99,Acu-Link.com,2013-02-20 19:10:00,
2013-02-20 14:25:00,33.1,14.1,29.63,North,-999,-999.0,-999.0,45,-99.99,,,-99.99,Acu-Link.com,2013-02-20 19:25:00,
2013-02-20 14:40:00,32.2,13.3,29.63,North,-999,-999.0,-999.0,45,-99.99,,,-99.99,Acu-Link.com,2013-02-20 19:40:00,
2013-02-20 14:55:00,32.4,12.9,29.63,North,-999,-999.0,-999.0,44,-99.99,,,-99.99,Acu-Link.com,2013-02-20 19:55:00,
2013-02-20 15:10:00,32.5,13.1,29.64,North,-999,-999.0,-999.0,44,-99.99,,,-99.99,Acu-Link.com,2013-02-20 20:10:00,
2013-02-20 15:25:00,32.7,13.2,29.65,North,-999,-999.0,-999.0,44,-99.99,,,-99.99,Acu-Link.com,2013-02-20 20:25:00,
2013-02-20 15:40:00,32.2,12.7,29.66,North,-999,-999.0,-999.0,44,-99.99,,,-99.99,Acu-Link.com,2013-02-20 20:40:00,
2013-02-20 15:55:00,31.6,13.3,29.65,North,-999,-999.0,-999.0,46,-99.99,,,-99.99,Acu-Link.com,2013-02-20 20:55:00,
2013-02-20 16:10:00,31.5,12.6,29.65,North,-999,-999.0,-999.0,45,-99.99,,,-99.99,Acu-Link.com,2013-02-20 21:10:00,
2013-02-20 16:25:00,32.0,12.6,29.66,North,-999,-999.0,-999.0,44,-99.99,,,-99.99,Acu-Link.com,2013-02-20 21:25:00,
2013-02-20 16:41:00,30.9,12.1,29.66,North,-999,-999.0,-999.0,45,-99.99,,,-99.99,Acu-Link.com,2013-02-20 21:41:00,
2013-02-20 16:56:00,30.9,12.6,29.67,North,-999,-999.0,-999.0,46,-99.99,,,-99.99,Acu-Link.com,2013-02-20 21:56:00,
2013-02-20 17:11:00,30.9,12.6,29.67,North,-999,-999.0,-999.0,46,-99.99,,,-99.99,Acu-Link.com,2013-02-20 22:11:00,
2013-02-20 17:26:00,30.7,12.4,29.68,North,-999,-999.0,-999.0,46,-99.99,,,-99.99,Acu-Link.com,2013-02-20 22:26:00,
2013-02-20 17:41:00,30.2,11.9,29.68,North,-999,-999.0,-999.0,46,-99.99,,,-99.99,Acu-Link.com,2013-02-20 22:41:00,
2013-02-20 17:56:00,30.2,11.9,29.69,North,-999,-999.0,-999.0,46,-99.99,,,-99.99,Acu-Link.com,2013-02-20 22:56:00,
2013-02-20 18:12:00,30.2,11.9,29.70,North,-999,-999.0,-999.0,46,-99.99,,,-99.99,Acu-Link.com,2013-02-20 23:12:00,
2013-02-20 18:27:00,30.2,12.4,29.70,North,-999,-999.0,-999.0,47,-99.99,,,-99.99,Acu-Link.com,2013-02-20 23:27:00,
2013-02-20 18:42:00,30.0,13.2,29.71,North,-999,-999.0,-999.0,49,-99.99,,,-99.99,Acu-Link.com,2013-02-20 23:42:00,
2013-02-20 18:58:00,29.7,12.9,29.72,North,-999,-999.0,-999.0,49,-99.99,,,-99.99,Acu-Link.com,2013-02-20 23:58:00,
2013-02-20 19:13:00,29.5,13.2,29.72,North,-999,-999.0,-999.0,50,-99.99,,,-99.99,Acu-Link.com,2013-02-21 00:13:00,
2013-02-20 19:28:00,29.3,13.0,29.72,North,-999,-999.0,-999.0,50,-99.99,,,-99.99,Acu-Link.com,2013-02-21 00:28:00,
2013-02-20 19:43:00,28.9,13.1,29.72,North,-999,-999.0,-999.0,51,-99.99,,,-99.99,Acu-Link.com,2013-02-21 00:43:00,
2013-02-20 19:58:00,28.8,12.9,29.72,North,-999,-999.0,-999.0,51,-99.99,,,-99.99,Acu-Link.com,2013-02-21 00:58:00,
2013-02-20 20:13:00,28.6,12.8,29.73,North,-999,-999.0,-999.0,51,-99.99,,,-99.99,Acu-Link.com,2013-02-21 01:13:00,
2013-02-20 20:28:00,28.4,12.6,29.73,North,-999,-999.0,-999.0,51,-99.99,,,-99.99,Acu-Link.com,2013-02-21 01:28:00,
2013-02-20 20:43:00,28.4,12.6,29.73,North,-999,-999.0,-999.0,51,-99.99,,,-99.99,Acu-Link.com,2013-02-21 01:43:00,
2013-02-20 20:59:00,28.2,12.9,29.74,North,-999,-999.0,-999.0,52,-99.99,,,-99.99,Acu-Link.com,2013-02-21 01:59:00,
2013-02-20 21:14:00,27.9,12.1,29.74,North,-999,-999.0,-999.0,51,-99.99,,,-99.99,Acu-Link.com,2013-02-21 02:14:00,
2013-02-20 21:29:00,27.7,11.9,29.74,North,-999,-999.0,-999.0,51,-99.99,,,-99.99,Acu-Link.com,2013-02-21 02:29:00,
2013-02-20 21:45:00,27.5,11.8,29.74,North,-999,-999.0,-999.0,51,-99.99,,,-99.99,Acu-Link.com,2013-02-21 02:45:00,
2013-02-20 22:00:00,27.3,11.6,29.74,North,-999,-999.0,-999.0,51,-99.99,,,-99.99,Acu-Link.com,2013-02-21 03:00:00,
2013-02-20 22:15:00,27.1,11.4,29.75,North,-999,-999.0,-999.0,51,-99.99,,,-99.99,Acu-Link.com,2013-02-21 03:15:00,
2013-02-20 22:30:00,27.0,10.8,29.75,North,-999,-999.0,-999.0,50,-99.99,,,-99.99,Acu-Link.com,2013-02-21 03:30:00,
2013-02-20 22:45:00,27.0,10.8,29.75,North,-999,-999.0,-999.0,50,-99.99,,,-99.99,Acu-Link.com,2013-02-21 03:45:00,
2013-02-20 23:00:00,26.8,10.7,29.75,North,-999,-999.0,-999.0,50,-99.99,,,-99.99,Acu-Link.com,2013-02-21 04:00:00,
2013-02-20 23:15:00,26.6,10.9,29.75,North,-999,-999.0,-999.0,51,-99.99,,,-99.99,Acu-Link.com,2013-02-21 04:15:00,
2013-02-20 23:30:00,26.6,10.9,29.76,North,-999,-999.0,-999.0,51,-99.99,,,-99.99,Acu-Link.com,2013-02-21 04:30:00,
2013-02-20 23:45:00,26.6,10.9,29.76,North,-999,-999.0,-999.0,51,-99.99,,,-99.99,Acu-Link.com,2013-02-21 04:45:00,